sensor_id;sensor_type;location;lat;lon;timestamp;P1;durP1;ratioP1;P2;durP2;ratioP2
13012;SDS011;22580;57.670;12.006;2022-11-20T00:00:29;0.63;;;0.63;;
13012;SDS011;22580;57.670;12.006;2022-11-20T00:02:56;0.77;;;0.77;;
13012;SDS011;22580;57.670;12.006;2022-11-20T00:05:23;0.90;;;0.80;;
13012;SDS011;22580;57.670;12.006;2022-11-20T00:07:50;0.60;;;0.60;;
13012;SDS011;22580;57.670;12.006;2022-11-20T00:10:17;0.60;;;0.60;;
13012;SDS011;22580;57.670;12.006;2022-11-20T00:12:45;0.70;;;0.70;;
13012;SDS011;22580;57.670;12.006;2022-11-20T00:15:13;0.60;;;0.57;;
13012;SDS011;22580;57.670;12.006;2022-11-20T00:17:40;0.40;;;0.40;;
13012;SDS011;22580;57.670;12.006;2022-11-20T00:20:08;0.60;;;0.60;;
13012;SDS011;22580;57.670;12.006;2022-11-20T00:22:36;0.83;;;0.83;;
13012;SDS011;22580;57.670;12.006;2022-11-20T00:25:03;0.57;;;0.57;;
13012;SDS011;22580;57.670;12.006;2022-11-20T00:27:31;1.30;;;0.70;;
13012;SDS011;22580;57.670;12.006;2022-11-20T00:29:58;0.67;;;0.67;;
13012;SDS011;22580;57.670;12.006;2022-11-20T00:32:27;0.57;;;0.57;;
13012;SDS011;22580;57.670;12.006;2022-11-20T00:34:54;0.60;;;0.60;;
13012;SDS011;22580;57.670;12.006;2022-11-20T00:37:22;0.80;;;0.80;;
13012;SDS011;22580;57.670;12.006;2022-11-20T00:39:49;0.73;;;0.73;;
13012;SDS011;22580;57.670;12.006;2022-11-20T00:42:16;1.17;;;0.70;;
13012;SDS011;22580;57.670;12.006;2022-11-20T00:44:44;0.60;;;0.60;;
13012;SDS011;22580;57.670;12.006;2022-11-20T00:47:11;0.60;;;0.60;;
13012;SDS011;22580;57.670;12.006;2022-11-20T00:49:39;0.90;;;0.90;;
13012;SDS011;22580;57.670;12.006;2022-11-20T00:52:06;1.17;;;0.70;;
13012;SDS011;22580;57.670;12.006;2022-11-20T00:54:34;0.70;;;0.70;;
13012;SDS011;22580;57.670;12.006;2022-11-20T00:57:01;0.60;;;0.60;;
13012;SDS011;22580;57.670;12.006;2022-11-20T00:59:28;0.70;;;0.70;;
13012;SDS011;22580;57.670;12.006;2022-11-20T01:01:57;1.50;;;0.63;;
13012;SDS011;22580;57.670;12.006;2022-11-20T01:04:24;0.60;;;0.60;;
13012;SDS011;22580;57.670;12.006;2022-11-20T01:06:52;0.50;;;0.50;;
13012;SDS011;22580;57.670;12.006;2022-11-20T01:09:19;0.50;;;0.50;;
13012;SDS011;22580;57.670;12.006;2022-11-20T01:11:47;0.53;;;0.53;;
13012;SDS011;22580;57.670;12.006;2022-11-20T01:14:15;0.70;;;0.70;;
13012;SDS011;22580;57.670;12.006;2022-11-20T01:16:45;0.80;;;0.80;;
13012;SDS011;22580;57.670;12.006;2022-11-20T01:19:14;0.70;;;0.70;;
13012;SDS011;22580;57.670;12.006;2022-11-20T01:21:42;0.60;;;0.60;;
13012;SDS011;22580;57.670;12.006;2022-11-20T01:24:13;0.70;;;0.70;;
13012;SDS011;22580;57.670;12.006;2022-11-20T01:26:42;0.60;;;0.60;;
13012;SDS011;22580;57.670;12.006;2022-11-20T01:31:39;0.50;;;0.50;;
13012;SDS011;22580;57.670;12.006;2022-11-20T01:34:09;0.40;;;0.40;;
13012;SDS011;22580;57.670;12.006;2022-11-20T01:36:37;0.70;;;0.70;;
13012;SDS011;22580;57.670;12.006;2022-11-20T01:39:06;0.67;;;0.67;;
13012;SDS011;22580;57.670;12.006;2022-11-20T01:41:37;0.40;;;0.40;;
13012;SDS011;22580;57.670;12.006;2022-11-20T01:44:39;0.40;;;0.40;;
13012;SDS011;22580;57.670;12.006;2022-11-20T01:47:16;0.57;;;0.57;;
13012;SDS011;22580;57.670;12.006;2022-11-20T01:49:47;0.73;;;0.73;;
13012;SDS011;22580;57.670;12.006;2022-11-20T01:52:18;0.50;;;0.50;;
13012;SDS011;22580;57.670;12.006;2022-11-20T01:54:48;0.50;;;0.50;;
13012;SDS011;22580;57.670;12.006;2022-11-20T01:57:21;0.70;;;0.70;;
13012;SDS011;22580;57.670;12.006;2022-11-20T01:59:52;0.80;;;0.80;;
13012;SDS011;22580;57.670;12.006;2022-11-20T02:02:23;0.90;;;0.90;;
13012;SDS011;22580;57.670;12.006;2022-11-20T02:04:51;0.73;;;0.73;;
13012;SDS011;22580;57.670;12.006;2022-11-20T02:07:21;0.73;;;0.73;;
13012;SDS011;22580;57.670;12.006;2022-11-20T02:09:50;0.70;;;0.70;;
13012;SDS011;22580;57.670;12.006;2022-11-20T02:12:18;0.60;;;0.60;;
13012;SDS011;22580;57.670;12.006;2022-11-20T02:15:04;0.60;;;0.60;;
13012;SDS011;22580;57.670;12.006;2022-11-20T02:17:32;0.70;;;0.70;;
13012;SDS011;22580;57.670;12.006;2022-11-20T02:19:59;1.07;;;1.00;;
13012;SDS011;22580;57.670;12.006;2022-11-20T02:22:28;0.87;;;0.87;;
13012;SDS011;22580;57.670;12.006;2022-11-20T02:25:01;1.10;;;1.00;;
13012;SDS011;22580;57.670;12.006;2022-11-20T02:27:31;1.00;;;1.00;;
13012;SDS011;22580;57.670;12.006;2022-11-20T02:29:59;1.20;;;1.13;;
13012;SDS011;22580;57.670;12.006;2022-11-20T02:32:30;1.00;;;1.00;;
13012;SDS011;22580;57.670;12.006;2022-11-20T02:35:05;0.80;;;0.80;;
13012;SDS011;22580;57.670;12.006;2022-11-20T02:37:34;1.13;;;1.10;;
13012;SDS011;22580;57.670;12.006;2022-11-20T02:40:06;1.40;;;1.00;;
13012;SDS011;22580;57.670;12.006;2022-11-20T02:42:34;1.10;;;1.10;;
13012;SDS011;22580;57.670;12.006;2022-11-20T02:45:01;0.67;;;0.67;;
13012;SDS011;22580;57.670;12.006;2022-11-20T02:47:29;0.90;;;0.90;;
13012;SDS011;22580;57.670;12.006;2022-11-20T02:49:56;1.30;;;1.20;;
13012;SDS011;22580;57.670;12.006;2022-11-20T02:52:23;1.13;;;1.10;;
13012;SDS011;22580;57.670;12.006;2022-11-20T02:54:51;0.77;;;0.77;;
13012;SDS011;22580;57.670;12.006;2022-11-20T02:57:19;1.20;;;1.10;;
13012;SDS011;22580;57.670;12.006;2022-11-20T02:59:46;0.80;;;0.80;;
13012;SDS011;22580;57.670;12.006;2022-11-20T03:02:13;0.90;;;0.90;;
13012;SDS011;22580;57.670;12.006;2022-11-20T03:04:41;1.00;;;1.00;;
13012;SDS011;22580;57.670;12.006;2022-11-20T03:07:08;1.00;;;1.00;;
13012;SDS011;22580;57.670;12.006;2022-11-20T03:09:35;1.10;;;0.97;;
13012;SDS011;22580;57.670;12.006;2022-11-20T03:12:02;1.27;;;1.20;;
13012;SDS011;22580;57.670;12.006;2022-11-20T03:14:31;1.10;;;1.00;;
13012;SDS011;22580;57.670;12.006;2022-11-20T03:16:58;0.80;;;0.80;;
13012;SDS011;22580;57.670;12.006;2022-11-20T03:19:25;0.70;;;0.70;;
13012;SDS011;22580;57.670;12.006;2022-11-20T03:21:52;0.67;;;0.67;;
13012;SDS011;22580;57.670;12.006;2022-11-20T03:24:20;0.73;;;0.73;;
13012;SDS011;22580;57.670;12.006;2022-11-20T03:26:47;0.83;;;0.80;;
13012;SDS011;22580;57.670;12.006;2022-11-20T03:29:14;1.03;;;0.93;;
13012;SDS011;22580;57.670;12.006;2022-11-20T03:31:42;0.80;;;0.80;;
13012;SDS011;22580;57.670;12.006;2022-11-20T03:34:10;0.90;;;0.90;;
13012;SDS011;22580;57.670;12.006;2022-11-20T03:36:37;0.90;;;0.90;;
13012;SDS011;22580;57.670;12.006;2022-11-20T03:39:05;0.80;;;0.80;;
13012;SDS011;22580;57.670;12.006;2022-11-20T03:41:35;0.80;;;0.80;;
13012;SDS011;22580;57.670;12.006;2022-11-20T03:44:04;0.70;;;0.70;;
13012;SDS011;22580;57.670;12.006;2022-11-20T03:46:33;0.80;;;0.80;;
13012;SDS011;22580;57.670;12.006;2022-11-20T03:49:02;0.83;;;0.83;;
13012;SDS011;22580;57.670;12.006;2022-11-20T03:51:30;1.20;;;1.10;;
13012;SDS011;22580;57.670;12.006;2022-11-20T03:53:59;0.80;;;0.80;;
13012;SDS011;22580;57.670;12.006;2022-11-20T03:56:29;0.90;;;0.90;;
13012;SDS011;22580;57.670;12.006;2022-11-20T03:58:58;0.93;;;0.93;;
13012;SDS011;22580;57.670;12.006;2022-11-20T04:01:26;1.00;;;1.00;;
13012;SDS011;22580;57.670;12.006;2022-11-20T04:03:56;1.00;;;1.00;;
13012;SDS011;22580;57.670;12.006;2022-11-20T04:06:25;0.93;;;0.93;;
13012;SDS011;22580;57.670;12.006;2022-11-20T04:08:54;1.03;;;1.03;;
13012;SDS011;22580;57.670;12.006;2022-11-20T04:11:22;0.97;;;0.97;;
13012;SDS011;22580;57.670;12.006;2022-11-20T04:13:51;0.90;;;0.90;;
13012;SDS011;22580;57.670;12.006;2022-11-20T04:16:28;1.03;;;0.90;;
13012;SDS011;22580;57.670;12.006;2022-11-20T04:18:57;1.20;;;1.20;;
13012;SDS011;22580;57.670;12.006;2022-11-20T04:21:26;1.00;;;1.00;;
13012;SDS011;22580;57.670;12.006;2022-11-20T04:23:54;1.53;;;1.00;;
13012;SDS011;22580;57.670;12.006;2022-11-20T04:26:22;0.90;;;0.90;;
13012;SDS011;22580;57.670;12.006;2022-11-20T04:28:50;0.87;;;0.87;;
13012;SDS011;22580;57.670;12.006;2022-11-20T04:31:19;0.73;;;0.73;;
13012;SDS011;22580;57.670;12.006;2022-11-20T04:33:47;0.70;;;0.70;;
13012;SDS011;22580;57.670;12.006;2022-11-20T04:36:17;0.70;;;0.70;;
13012;SDS011;22580;57.670;12.006;2022-11-20T04:38:50;0.80;;;0.80;;
13012;SDS011;22580;57.670;12.006;2022-11-20T04:41:18;1.10;;;1.00;;
13012;SDS011;22580;57.670;12.006;2022-11-20T04:43:47;1.50;;;1.40;;
13012;SDS011;22580;57.670;12.006;2022-11-20T04:46:15;1.20;;;1.20;;
13012;SDS011;22580;57.670;12.006;2022-11-20T04:48:42;1.47;;;1.10;;
13012;SDS011;22580;57.670;12.006;2022-11-20T04:51:09;1.20;;;1.10;;
13012;SDS011;22580;57.670;12.006;2022-11-20T04:53:36;1.33;;;1.23;;
13012;SDS011;22580;57.670;12.006;2022-11-20T04:56:06;1.13;;;1.13;;
13012;SDS011;22580;57.670;12.006;2022-11-20T04:58:36;1.33;;;1.33;;
13012;SDS011;22580;57.670;12.006;2022-11-20T05:01:05;1.20;;;1.10;;
13012;SDS011;22580;57.670;12.006;2022-11-20T05:03:36;0.90;;;0.90;;
13012;SDS011;22580;57.670;12.006;2022-11-20T05:06:03;0.80;;;0.80;;
13012;SDS011;22580;57.670;12.006;2022-11-20T05:08:31;0.87;;;0.87;;
13012;SDS011;22580;57.670;12.006;2022-11-20T05:11:01;0.90;;;0.90;;
13012;SDS011;22580;57.670;12.006;2022-11-20T05:13:31;1.33;;;1.23;;
13012;SDS011;22580;57.670;12.006;2022-11-20T05:16:00;1.20;;;1.10;;
13012;SDS011;22580;57.670;12.006;2022-11-20T05:18:28;1.13;;;1.13;;
13012;SDS011;22580;57.670;12.006;2022-11-20T05:20:55;1.33;;;1.23;;
13012;SDS011;22580;57.670;12.006;2022-11-20T05:23:23;1.23;;;1.17;;
13012;SDS011;22580;57.670;12.006;2022-11-20T05:25:52;1.50;;;1.40;;
13012;SDS011;22580;57.670;12.006;2022-11-20T05:28:19;1.03;;;1.03;;
13012;SDS011;22580;57.670;12.006;2022-11-20T05:30:48;1.40;;;1.30;;
13012;SDS011;22580;57.670;12.006;2022-11-20T05:33:16;1.20;;;1.20;;
13012;SDS011;22580;57.670;12.006;2022-11-20T05:35:43;1.03;;;1.03;;
13012;SDS011;22580;57.670;12.006;2022-11-20T05:38:10;1.10;;;1.00;;
13012;SDS011;22580;57.670;12.006;2022-11-20T05:40:38;1.00;;;1.00;;
13012;SDS011;22580;57.670;12.006;2022-11-20T05:43:05;0.90;;;0.90;;
13012;SDS011;22580;57.670;12.006;2022-11-20T05:45:35;1.00;;;1.00;;
13012;SDS011;22580;57.670;12.006;2022-11-20T05:48:04;0.90;;;0.90;;
13012;SDS011;22580;57.670;12.006;2022-11-20T05:50:32;0.90;;;0.90;;
13012;SDS011;22580;57.670;12.006;2022-11-20T05:52:59;0.87;;;0.80;;
13012;SDS011;22580;57.670;12.006;2022-11-20T05:55:27;1.17;;;1.10;;
13012;SDS011;22580;57.670;12.006;2022-11-20T05:57:54;1.07;;;1.07;;
13012;SDS011;22580;57.670;12.006;2022-11-20T06:00:24;1.37;;;1.27;;
13012;SDS011;22580;57.670;12.006;2022-11-20T06:02:52;1.50;;;1.40;;
13012;SDS011;22580;57.670;12.006;2022-11-20T06:05:20;1.30;;;1.20;;
13012;SDS011;22580;57.670;12.006;2022-11-20T06:07:48;1.10;;;1.10;;
13012;SDS011;22580;57.670;12.006;2022-11-20T06:10:15;1.30;;;1.20;;
13012;SDS011;22580;57.670;12.006;2022-11-20T06:12:42;1.50;;;1.40;;
13012;SDS011;22580;57.670;12.006;2022-11-20T06:15:09;1.13;;;1.10;;
13012;SDS011;22580;57.670;12.006;2022-11-20T06:17:36;1.10;;;1.10;;
13012;SDS011;22580;57.670;12.006;2022-11-20T06:20:04;0.80;;;0.80;;
13012;SDS011;22580;57.670;12.006;2022-11-20T06:22:33;1.20;;;1.20;;
13012;SDS011;22580;57.670;12.006;2022-11-20T06:25:00;1.10;;;1.10;;
13012;SDS011;22580;57.670;12.006;2022-11-20T06:27:27;1.57;;;1.47;;
13012;SDS011;22580;57.670;12.006;2022-11-20T06:29:54;1.10;;;1.10;;
13012;SDS011;22580;57.670;12.006;2022-11-20T06:32:21;1.87;;;1.10;;
13012;SDS011;22580;57.670;12.006;2022-11-20T06:34:48;1.30;;;1.20;;
13012;SDS011;22580;57.670;12.006;2022-11-20T06:37:15;1.47;;;1.37;;
13012;SDS011;22580;57.670;12.006;2022-11-20T06:39:43;1.60;;;1.50;;
13012;SDS011;22580;57.670;12.006;2022-11-20T06:42:10;1.23;;;1.13;;
13012;SDS011;22580;57.670;12.006;2022-11-20T06:44:40;1.50;;;1.40;;
13012;SDS011;22580;57.670;12.006;2022-11-20T06:47:07;1.40;;;1.30;;
13012;SDS011;22580;57.670;12.006;2022-11-20T06:49:34;1.10;;;1.10;;
13012;SDS011;22580;57.670;12.006;2022-11-20T06:52:03;1.20;;;1.10;;
13012;SDS011;22580;57.670;12.006;2022-11-20T06:54:30;1.37;;;1.00;;
13012;SDS011;22580;57.670;12.006;2022-11-20T06:56:59;1.13;;;1.10;;
13012;SDS011;22580;57.670;12.006;2022-11-20T06:59:26;0.90;;;0.90;;
13012;SDS011;22580;57.670;12.006;2022-11-20T07:01:53;1.30;;;1.00;;
13012;SDS011;22580;57.670;12.006;2022-11-20T07:04:20;1.57;;;1.37;;
13012;SDS011;22580;57.670;12.006;2022-11-20T07:06:48;1.10;;;1.10;;
13012;SDS011;22580;57.670;12.006;2022-11-20T07:09:15;1.37;;;1.27;;
13012;SDS011;22580;57.670;12.006;2022-11-20T07:11:42;1.20;;;1.10;;
13012;SDS011;22580;57.670;12.006;2022-11-20T07:14:12;1.20;;;1.20;;
13012;SDS011;22580;57.670;12.006;2022-11-20T07:16:39;1.13;;;1.13;;
13012;SDS011;22580;57.670;12.006;2022-11-20T07:19:06;1.07;;;1.07;;
13012;SDS011;22580;57.670;12.006;2022-11-20T07:21:33;1.13;;;1.10;;
13012;SDS011;22580;57.670;12.006;2022-11-20T07:24:00;1.00;;;1.00;;
13012;SDS011;22580;57.670;12.006;2022-11-20T07:26:27;1.30;;;1.20;;
13012;SDS011;22580;57.670;12.006;2022-11-20T07:28:54;1.40;;;1.30;;
13012;SDS011;22580;57.670;12.006;2022-11-20T07:31:23;1.30;;;1.20;;
13012;SDS011;22580;57.670;12.006;2022-11-20T07:33:50;1.10;;;1.10;;
13012;SDS011;22580;57.670;12.006;2022-11-20T07:36:17;0.97;;;0.97;;
13012;SDS011;22580;57.670;12.006;2022-11-20T07:38:46;1.73;;;1.10;;
13012;SDS011;22580;57.670;12.006;2022-11-20T07:41:13;1.10;;;1.10;;
13012;SDS011;22580;57.670;12.006;2022-11-20T07:43:41;1.40;;;1.30;;
13012;SDS011;22580;57.670;12.006;2022-11-20T07:46:09;1.27;;;1.20;;
13012;SDS011;22580;57.670;12.006;2022-11-20T07:48:37;1.20;;;1.20;;
13012;SDS011;22580;57.670;12.006;2022-11-20T07:51:05;1.20;;;1.13;;
13012;SDS011;22580;57.670;12.006;2022-11-20T07:53:32;1.60;;;1.10;;
13012;SDS011;22580;57.670;12.006;2022-11-20T07:55:59;1.00;;;1.00;;
13012;SDS011;22580;57.670;12.006;2022-11-20T07:58:28;1.33;;;1.30;;
13012;SDS011;22580;57.670;12.006;2022-11-20T08:00:58;1.43;;;1.33;;
13012;SDS011;22580;57.670;12.006;2022-11-20T08:03:25;1.70;;;1.60;;
13012;SDS011;22580;57.670;12.006;2022-11-20T08:05:53;1.30;;;1.20;;
13012;SDS011;22580;57.670;12.006;2022-11-20T08:08:20;1.53;;;1.43;;
13012;SDS011;22580;57.670;12.006;2022-11-20T08:10:47;1.10;;;1.10;;
13012;SDS011;22580;57.670;12.006;2022-11-20T08:13:15;2.27;;;1.43;;
13012;SDS011;22580;57.670;12.006;2022-11-20T08:15:59;1.33;;;1.23;;
13012;SDS011;22580;57.670;12.006;2022-11-20T08:18:26;3.33;;;1.67;;
13012;SDS011;22580;57.670;12.006;2022-11-20T08:20:55;2.17;;;1.60;;
13012;SDS011;22580;57.670;12.006;2022-11-20T08:23:22;1.23;;;1.17;;
13012;SDS011;22580;57.670;12.006;2022-11-20T08:25:50;1.20;;;1.20;;
13012;SDS011;22580;57.670;12.006;2022-11-20T08:28:17;1.20;;;1.10;;
13012;SDS011;22580;57.670;12.006;2022-11-20T08:30:44;1.23;;;1.00;;
13012;SDS011;22580;57.670;12.006;2022-11-20T08:33:12;1.07;;;1.00;;
13012;SDS011;22580;57.670;12.006;2022-11-20T08:35:39;1.00;;;1.00;;
13012;SDS011;22580;57.670;12.006;2022-11-20T08:38:09;1.20;;;0.80;;
13012;SDS011;22580;57.670;12.006;2022-11-20T08:40:36;0.90;;;0.90;;
13012;SDS011;22580;57.670;12.006;2022-11-20T08:43:03;1.00;;;1.00;;
13012;SDS011;22580;57.670;12.006;2022-11-20T08:45:31;1.10;;;1.10;;
13012;SDS011;22580;57.670;12.006;2022-11-20T08:47:59;0.73;;;0.73;;
13012;SDS011;22580;57.670;12.006;2022-11-20T08:50:27;0.90;;;0.90;;
13012;SDS011;22580;57.670;12.006;2022-11-20T08:53:01;0.90;;;0.90;;
13012;SDS011;22580;57.670;12.006;2022-11-20T08:55:31;0.80;;;0.80;;
13012;SDS011;22580;57.670;12.006;2022-11-20T08:58:02;0.80;;;0.80;;
13012;SDS011;22580;57.670;12.006;2022-11-20T09:00:33;1.10;;;1.00;;
13012;SDS011;22580;57.670;12.006;2022-11-20T09:03:02;0.80;;;0.80;;
13012;SDS011;22580;57.670;12.006;2022-11-20T09:05:29;1.20;;;1.10;;
13012;SDS011;22580;57.670;12.006;2022-11-20T09:07:56;0.97;;;0.73;;
13012;SDS011;22580;57.670;12.006;2022-11-20T09:10:24;0.80;;;0.80;;
13012;SDS011;22580;57.670;12.006;2022-11-20T09:12:52;0.70;;;0.70;;
13012;SDS011;22580;57.670;12.006;2022-11-20T09:15:22;1.20;;;1.10;;
13012;SDS011;22580;57.670;12.006;2022-11-20T09:17:53;1.07;;;1.07;;
13012;SDS011;22580;57.670;12.006;2022-11-20T09:20:21;1.00;;;1.00;;
13012;SDS011;22580;57.670;12.006;2022-11-20T09:22:48;0.70;;;0.70;;
13012;SDS011;22580;57.670;12.006;2022-11-20T09:25:15;0.93;;;0.93;;
13012;SDS011;22580;57.670;12.006;2022-11-20T09:27:43;0.80;;;0.80;;
13012;SDS011;22580;57.670;12.006;2022-11-20T09:30:13;0.70;;;0.70;;
13012;SDS011;22580;57.670;12.006;2022-11-20T09:32:41;0.80;;;0.80;;
13012;SDS011;22580;57.670;12.006;2022-11-20T09:35:09;2.20;;;1.60;;
13012;SDS011;22580;57.670;12.006;2022-11-20T09:37:37;0.93;;;0.90;;
13012;SDS011;22580;57.670;12.006;2022-11-20T09:40:05;0.80;;;0.80;;
13012;SDS011;22580;57.670;12.006;2022-11-20T09:42:35;1.00;;;1.00;;
13012;SDS011;22580;57.670;12.006;2022-11-20T09:51:05;0.83;;;0.83;;
13012;SDS011;22580;57.670;12.006;2022-11-20T09:53:44;0.80;;;0.80;;
13012;SDS011;22580;57.670;12.006;2022-11-20T09:56:24;0.90;;;0.60;;
13012;SDS011;22580;57.670;12.006;2022-11-20T09:58:53;0.80;;;0.80;;
13012;SDS011;22580;57.670;12.006;2022-11-20T10:01:26;0.60;;;0.60;;
13012;SDS011;22580;57.670;12.006;2022-11-20T10:03:58;0.70;;;0.70;;
13012;SDS011;22580;57.670;12.006;2022-11-20T10:06:32;0.67;;;0.67;;
13012;SDS011;22580;57.670;12.006;2022-11-20T10:09:07;0.80;;;0.80;;
13012;SDS011;22580;57.670;12.006;2022-11-20T10:11:48;0.90;;;0.90;;
13012;SDS011;22580;57.670;12.006;2022-11-20T10:14:26;0.93;;;0.93;;
13012;SDS011;22580;57.670;12.006;2022-11-20T10:17:08;0.80;;;0.80;;
13012;SDS011;22580;57.670;12.006;2022-11-20T10:19:50;0.67;;;0.67;;
13012;SDS011;22580;57.670;12.006;2022-11-20T10:22:30;0.93;;;0.70;;
13012;SDS011;22580;57.670;12.006;2022-11-20T10:25:13;0.60;;;0.60;;
13012;SDS011;22580;57.670;12.006;2022-11-20T10:27:48;0.70;;;0.70;;
13012;SDS011;22580;57.670;12.006;2022-11-20T10:30:35;0.70;;;0.70;;
13012;SDS011;22580;57.670;12.006;2022-11-20T10:33:08;0.67;;;0.67;;
13012;SDS011;22580;57.670;12.006;2022-11-20T10:35:43;0.70;;;0.70;;
13012;SDS011;22580;57.670;12.006;2022-11-20T10:38:13;0.60;;;0.60;;
13012;SDS011;22580;57.670;12.006;2022-11-20T10:40:45;0.63;;;0.63;;
13012;SDS011;22580;57.670;12.006;2022-11-20T10:43:16;0.50;;;0.50;;
13012;SDS011;22580;57.670;12.006;2022-11-20T10:45:49;1.30;;;1.20;;
13012;SDS011;22580;57.670;12.006;2022-11-20T10:48:22;0.93;;;0.90;;
13012;SDS011;22580;57.670;12.006;2022-11-20T10:51:03;1.00;;;0.90;;
13012;SDS011;22580;57.670;12.006;2022-11-20T10:56:33;0.87;;;0.87;;
13012;SDS011;22580;57.670;12.006;2022-11-20T10:59:28;1.00;;;0.70;;
13012;SDS011;22580;57.670;12.006;2022-11-20T11:02:18;0.60;;;0.57;;
13012;SDS011;22580;57.670;12.006;2022-11-20T11:04:48;0.80;;;0.80;;
13012;SDS011;22580;57.670;12.006;2022-11-20T11:07:19;0.67;;;0.67;;
13012;SDS011;22580;57.670;12.006;2022-11-20T11:09:49;0.40;;;0.40;;
13012;SDS011;22580;57.670;12.006;2022-11-20T11:12:18;0.70;;;0.70;;
13012;SDS011;22580;57.670;12.006;2022-11-20T11:14:47;0.80;;;0.80;;
13012;SDS011;22580;57.670;12.006;2022-11-20T11:17:23;0.83;;;0.83;;
13012;SDS011;22580;57.670;12.006;2022-11-20T11:20:05;0.90;;;0.90;;
13012;SDS011;22580;57.670;12.006;2022-11-20T11:22:44;1.20;;;0.97;;
13012;SDS011;22580;57.670;12.006;2022-11-20T11:25:26;1.20;;;1.10;;
13012;SDS011;22580;57.670;12.006;2022-11-20T11:27:55;0.70;;;0.70;;
13012;SDS011;22580;57.670;12.006;2022-11-20T11:30:24;0.83;;;0.70;;
13012;SDS011;22580;57.670;12.006;2022-11-20T11:33:04;0.70;;;0.70;;
13012;SDS011;22580;57.670;12.006;2022-11-20T11:35:38;0.50;;;0.50;;
13012;SDS011;22580;57.670;12.006;2022-11-20T11:38:12;0.60;;;0.60;;
13012;SDS011;22580;57.670;12.006;2022-11-20T11:40:42;0.60;;;0.60;;
13012;SDS011;22580;57.670;12.006;2022-11-20T11:43:16;0.70;;;0.70;;
13012;SDS011;22580;57.670;12.006;2022-11-20T11:46:04;0.70;;;0.70;;
13012;SDS011;22580;57.670;12.006;2022-11-20T11:48:54;0.60;;;0.60;;
13012;SDS011;22580;57.670;12.006;2022-11-20T11:51:23;0.70;;;0.70;;
13012;SDS011;22580;57.670;12.006;2022-11-20T11:53:55;0.50;;;0.50;;
13012;SDS011;22580;57.670;12.006;2022-11-20T11:56:25;0.40;;;0.40;;
13012;SDS011;22580;57.670;12.006;2022-11-20T11:58:53;0.43;;;0.43;;
13012;SDS011;22580;57.670;12.006;2022-11-20T12:01:28;0.57;;;0.57;;
13012;SDS011;22580;57.670;12.006;2022-11-20T12:04:03;0.50;;;0.50;;
13012;SDS011;22580;57.670;12.006;2022-11-20T12:06:42;0.67;;;0.67;;
13012;SDS011;22580;57.670;12.006;2022-11-20T12:09:12;0.50;;;0.50;;
13012;SDS011;22580;57.670;12.006;2022-11-20T12:11:42;0.60;;;0.60;;
13012;SDS011;22580;57.670;12.006;2022-11-20T12:14:14;0.80;;;0.80;;
13012;SDS011;22580;57.670;12.006;2022-11-20T12:16:53;0.57;;;0.57;;
13012;SDS011;22580;57.670;12.006;2022-11-20T12:19:34;0.60;;;0.60;;
13012;SDS011;22580;57.670;12.006;2022-11-20T12:22:05;0.60;;;0.60;;
13012;SDS011;22580;57.670;12.006;2022-11-20T12:24:46;0.37;;;0.37;;
13012;SDS011;22580;57.670;12.006;2022-11-20T12:27:32;0.50;;;0.50;;
13012;SDS011;22580;57.670;12.006;2022-11-20T12:30:30;0.40;;;0.40;;
13012;SDS011;22580;57.670;12.006;2022-11-20T12:33:06;0.47;;;0.47;;
13012;SDS011;22580;57.670;12.006;2022-11-20T12:35:51;0.50;;;0.50;;
13012;SDS011;22580;57.670;12.006;2022-11-20T12:45:07;0.40;;;0.40;;
13012;SDS011;22580;57.670;12.006;2022-11-20T12:50:55;0.50;;;0.50;;
13012;SDS011;22580;57.670;12.006;2022-11-20T12:53:37;0.50;;;0.50;;
13012;SDS011;22580;57.670;12.006;2022-11-20T12:56:15;0.70;;;0.60;;
13012;SDS011;22580;57.670;12.006;2022-11-20T12:58:55;0.60;;;0.60;;
13012;SDS011;22580;57.670;12.006;2022-11-20T13:01:35;0.70;;;0.70;;
13012;SDS011;22580;57.670;12.006;2022-11-20T13:04:09;0.50;;;0.50;;
13012;SDS011;22580;57.670;12.006;2022-11-20T13:06:45;0.50;;;0.50;;
13012;SDS011;22580;57.670;12.006;2022-11-20T13:09:13;0.43;;;0.43;;
13012;SDS011;22580;57.670;12.006;2022-11-20T13:11:47;0.40;;;0.40;;
13012;SDS011;22580;57.670;12.006;2022-11-20T13:14:31;0.47;;;0.47;;
13012;SDS011;22580;57.670;12.006;2022-11-20T13:17:04;0.40;;;0.40;;
13012;SDS011;22580;57.670;12.006;2022-11-20T13:19:37;0.60;;;0.60;;
13012;SDS011;22580;57.670;12.006;2022-11-20T13:22:07;0.70;;;0.70;;
13012;SDS011;22580;57.670;12.006;2022-11-20T13:24:35;0.50;;;0.50;;
13012;SDS011;22580;57.670;12.006;2022-11-20T13:27:05;0.50;;;0.50;;
13012;SDS011;22580;57.670;12.006;2022-11-20T13:29:46;0.60;;;0.60;;
13012;SDS011;22580;57.670;12.006;2022-11-20T13:32:28;0.40;;;0.40;;
13012;SDS011;22580;57.670;12.006;2022-11-20T13:34:58;0.53;;;0.53;;
13012;SDS011;22580;57.670;12.006;2022-11-20T13:37:28;0.80;;;0.70;;
13012;SDS011;22580;57.670;12.006;2022-11-20T13:42:54;1.27;;;1.10;;
13012;SDS011;22580;57.670;12.006;2022-11-20T13:45:26;0.83;;;0.83;;
13012;SDS011;22580;57.670;12.006;2022-11-20T13:47:55;0.80;;;0.80;;
13012;SDS011;22580;57.670;12.006;2022-11-20T13:50:28;0.70;;;0.70;;
13012;SDS011;22580;57.670;12.006;2022-11-20T13:53:10;0.87;;;0.87;;
13012;SDS011;22580;57.670;12.006;2022-11-20T13:55:50;0.60;;;0.60;;
13012;SDS011;22580;57.670;12.006;2022-11-20T13:58:27;0.77;;;0.77;;
13012;SDS011;22580;57.670;12.006;2022-11-20T14:01:08;0.70;;;0.67;;
13012;SDS011;22580;57.670;12.006;2022-11-20T14:03:38;0.50;;;0.50;;
13012;SDS011;22580;57.670;12.006;2022-11-20T14:06:10;1.80;;;0.80;;
13012;SDS011;22580;57.670;12.006;2022-11-20T14:08:40;0.77;;;0.77;;
13012;SDS011;22580;57.670;12.006;2022-11-20T14:11:14;0.50;;;0.50;;
13012;SDS011;22580;57.670;12.006;2022-11-20T14:13:57;0.60;;;0.60;;
13012;SDS011;22580;57.670;12.006;2022-11-20T14:16:26;0.60;;;0.60;;
13012;SDS011;22580;57.670;12.006;2022-11-20T14:18:57;0.67;;;0.67;;
13012;SDS011;22580;57.670;12.006;2022-11-20T14:21:45;0.57;;;0.57;;
13012;SDS011;22580;57.670;12.006;2022-11-20T14:24:13;0.70;;;0.57;;
13012;SDS011;22580;57.670;12.006;2022-11-20T14:26:41;0.50;;;0.50;;
13012;SDS011;22580;57.670;12.006;2022-11-20T14:29:12;0.53;;;0.53;;
13012;SDS011;22580;57.670;12.006;2022-11-20T14:31:40;0.80;;;0.80;;
13012;SDS011;22580;57.670;12.006;2022-11-20T14:34:10;0.90;;;0.90;;
13012;SDS011;22580;57.670;12.006;2022-11-20T14:36:42;1.20;;;1.10;;
13012;SDS011;22580;57.670;12.006;2022-11-20T14:39:19;1.63;;;0.90;;
13012;SDS011;22580;57.670;12.006;2022-11-20T14:41:55;0.97;;;0.97;;
13012;SDS011;22580;57.670;12.006;2022-11-20T14:44:26;1.27;;;1.20;;
13012;SDS011;22580;57.670;12.006;2022-11-20T14:47:00;0.70;;;0.70;;
13012;SDS011;22580;57.670;12.006;2022-11-20T14:49:30;0.80;;;0.80;;
13012;SDS011;22580;57.670;12.006;2022-11-20T14:51:58;1.07;;;0.83;;
13012;SDS011;22580;57.670;12.006;2022-11-20T14:54:27;1.03;;;0.93;;
13012;SDS011;22580;57.670;12.006;2022-11-20T14:56:56;0.93;;;0.83;;
13012;SDS011;22580;57.670;12.006;2022-11-20T14:59:32;1.00;;;0.90;;
13012;SDS011;22580;57.670;12.006;2022-11-20T15:02:01;1.17;;;0.93;;
13012;SDS011;22580;57.670;12.006;2022-11-20T15:04:31;1.50;;;1.03;;
13012;SDS011;22580;57.670;12.006;2022-11-20T15:06:58;0.90;;;0.83;;
13012;SDS011;22580;57.670;12.006;2022-11-20T15:09:26;1.20;;;1.10;;
13012;SDS011;22580;57.670;12.006;2022-11-20T15:11:53;1.43;;;1.30;;
13012;SDS011;22580;57.670;12.006;2022-11-20T15:14:23;2.27;;;1.50;;
13012;SDS011;22580;57.670;12.006;2022-11-20T15:16:53;1.67;;;1.30;;